Time;durP1;ratioP1;P1;durP2;ratioP2;P2;SDS_P1;SDS_P2;PMS_P1;PMS_P2;Temp;Humidity;BMP_temperature;BMP_pressure;BME280_temperature;BME280_humidity;BME280_pressure;Samples;Min_cycle;Max_cycle;Signal;HPM_P1;HPM_P2
2022/11/24 05:49:16;;;;;;;13.28;6.83;;;;;;;;;;1817786;77;22661;-67
2022/11/24 05:51:42;;;;;;;15.80;7.08;;;;;;;;;;1780257;80;21083;-68
2022/11/24 05:54:08;;;;;;;16.02;7.25;;;;;;;;;;1789813;78;21051;-69
2022/11/24 05:56:35;;;;;;;12.00;6.92;;;;;;;;;;1783405;79;21180;-70
2022/11/24 05:59:01;;;;;;;14.13;6.80;;;;;;;;;;1789569;80;21196;-70
2022/11/24 06:01:27;;;;;;;13.70;6.65;;;;;;;;;;1791500;80;21086;-71
2022/11/24 06:03:53;;;;;;;11.43;5.67;;;;;;;;;;1787221;80;21056;-71
2022/11/24 06:06:19;;;;;;;15.35;6.65;;;;;;;;;;1789123;80;21016;-70
2022/11/24 06:08:45;;;;;;;12.63;5.62;;;;;;;;;;1784858;80;21330;-72
2022/11/24 06:11:18;;;;;;;11.40;6.15;;;;;;;;;;1784279;79;21056;-71
2022/11/24 06:13:47;;;;;;;11.68;5.72;;;;;;;;;;1785422;79;21020;-71
2022/11/24 06:16:14;;;;;;;10.93;5.65;;;;;;;;;;1785000;80;22141;-71
2022/11/24 06:18:40;;;;;;;11.48;6.35;;;;;;;;;;1781915;80;21020;-72
2022/11/24 06:21:06;;;;;;;9.40;4.37;;;;;;;;;;1782069;80;21044;-72
2022/11/24 06:23:35;;;;;;;7.45;4.70;;;;;;;;;;1793996;80;21001;-71
2022/11/24 06:26:02;;;;;;;23.67;21.15;;;;;;;;;;1783347;80;21057;-71
2022/11/24 06:28:28;;;;;;;11.40;5.95;;;;;;;;;;1783603;80;21024;-71
2022/11/24 06:30:54;;;;;;;10.58;5.55;;;;;;;;;;1791580;80;20972;-71
2022/11/24 06:33:20;;;;;;;9.03;5.47;;;;;;;;;;1789496;80;20958;-71
2022/11/24 06:35:46;;;;;;;9.20;5.50;;;;;;;;;;1792722;80;21448;-71
2022/11/24 06:38:12;;;;;;;11.15;6.15;;;;;;;;;;1780790;80;21004;-71
2022/11/24 06:40:38;;;;;;;9.60;5.05;;;;;;;;;;1781917;80;21324;-71
2022/11/24 06:43:04;;;;;;;8.78;4.62;;;;;;;;;;1787480;79;21051;-71
2022/11/24 06:45:30;;;;;;;9.78;4.72;;;;;;;;;;1761785;80;21028;-71
2022/11/24 06:47:56;;;;;;;8.75;5.47;;;;;;;;;;1785488;80;21476;-71
2022/11/24 06:50:22;;;;;;;10.35;5.33;;;;;;;;;;1773841;81;21016;-71
2022/11/24 06:52:48;;;;;;;9.20;4.97;;;;;;;;;;1776132;81;21024;-71
2022/11/24 06:55:14;;;;;;;9.93;5.05;;;;;;;;;;1762783;81;21078;-70
2022/11/24 06:57:41;;;;;;;8.88;5.72;;;;;;;;;;1778704;81;21040;-71
2022/11/24 07:00:08;;;;;;;8.45;4.47;;;;;;;;;;1769633;80;21096;-70
2022/11/24 07:02:34;;;;;;;7.75;4.12;;;;;;;;;;1755473;81;21643;-71
2022/11/24 07:05:00;;;;;;;11.10;5.15;;;;;;;;;;1765836;81;21072;-71
2022/11/24 07:07:26;;;;;;;7.75;4.30;;;;;;;;;;1766174;81;21172;-70
2022/11/24 07:09:52;;;;;;;10.43;5.40;;;;;;;;;;1770556;80;20961;-71
2022/11/24 07:12:18;;;;;;;9.33;4.37;;;;;;;;;;1772406;81;20985;-71
2022/11/24 07:14:46;;;;;;;8.33;5.03;;;;;;;;;;1772659;81;21052;-71
2022/11/24 07:17:12;;;;;;;10.20;4.97;;;;;;;;;;1767129;80;21513;-71
2022/11/24 07:19:43;;;;;;;11.33;5.25;;;;;;;;;;1766453;80;22239;-70
2022/11/24 07:22:06;;;;;;;12.03;5.92;;;;;;;;;;1766319;79;21044;-70
2022/11/24 07:24:32;;;;;;;9.88;5.55;;;;;;;;;;1763982;81;22066;-69
2022/11/24 07:26:58;;;;;;;11.73;5.08;;;;;;;;;;1761958;79;20953;-71
2022/11/24 07:29:25;;;;;;;9.28;5.03;;;;;;;;;;1772994;80;21017;-70
2022/11/24 07:31:51;;;;;;;9.83;5.60;;;;;;;;;;1755219;79;21005;-70
2022/11/24 07:34:17;;;;;;;9.93;5.40;;;;;;;;;;1762908;79;21068;-74
2022/11/24 07:36:43;;;;;;;12.65;5.75;;;;;;;;;;1770772;79;20965;-73
2022/11/24 07:39:10;;;;;;;10.72;5.62;;;;;;;;;;1768625;80;21076;-74
2022/11/24 07:41:36;;;;;;;10.13;5.30;;;;;;;;;;1775934;79;21056;-74
2022/11/24 08:01:25;;;;;;;10.80;6.55;;;;;;;;;;1805427;77;28146;-68
2022/11/24 08:03:53;;;;;;;15.10;7.50;;;;;;;;;;1770032;80;21046;-69
2022/11/24 08:06:19;;;;;;;10.18;5.90;;;;;;;;;;1746546;81;21036;-69
2022/11/24 08:08:45;;;;;;;11.25;7.10;;;;;;;;;;1771040;80;21024;-68
2022/11/24 08:11:13;;;;;;;14.50;8.00;;;;;;;;;;1769085;80;21059;-68
2022/11/24 08:13:39;;;;;;;13.25;8.40;;;;;;;;;;1753574;80;21556;-67
2022/11/24 08:16:06;;;;;;;15.53;8.40;;;;;;;;;;1777168;79;21044;-67
2022/11/24 08:18:33;;;;;;;11.33;7.05;;;;;;;;;;1774097;79;21028;-66
2022/11/24 08:20:59;;;;;;;12.90;7.12;;;;;;;;;;1787794;80;21558;-65
2022/11/24 08:23:26;;;;;;;14.55;7.78;;;;;;;;;;1727550;81;21000;-69
2022/11/24 08:25:53;;;;;;;12.98;7.37;;;;;;;;;;1777891;80;21047;-68
2022/11/24 08:28:20;;;;;;;13.45;6.83;;;;;;;;;;1774010;80;21008;-68
2022/11/24 08:30:46;;;;;;;11.97;7.10;;;;;;;;;;1768805;80;21055;-70
2022/11/24 08:33:12;;;;;;;10.82;5.80;;;;;;;;;;1766116;79;21536;-70
2022/11/24 08:35:38;;;;;;;12.50;6.67;;;;;;;;;;1775150;80;21012;-70
2022/11/24 08:38:04;;;;;;;12.82;6.50;;;;;;;;;;1759820;80;21480;-70
2022/11/24 08:40:30;;;;;;;12.58;6.35;;;;;;;;;;1761587;80;21031;-72
2022/11/24 08:42:57;;;;;;;10.32;6.30;;;;;;;;;;1781807;80;21046;-71
2022/11/24 08:45:24;;;;;;;9.85;5.35;;;;;;;;;;1759281;80;21106;-70
2022/11/24 08:47:51;;;;;;;11.68;5.90;;;;;;;;;;1778279;80;20992;-71
2022/11/24 08:50:18;;;;;;;13.50;5.90;;;;;;;;;;1773803;80;21039;-70
2022/11/24 08:52:44;;;;;;;9.48;5.60;;;;;;;;;;1774564;80;21472;-72
2022/11/24 08:55:11;;;;;;;13.48;6.28;;;;;;;;;;1783345;80;21099;-72
2022/11/24 08:57:38;;;;;;;12.15;5.87;;;;;;;;;;1770109;80;21046;-71
2022/11/24 09:00:05;;;;;;;13.35;7.00;;;;;;;;;;1776135;80;21022;-72
2022/11/24 09:02:33;;;;;;;9.88;5.50;;;;;;;;;;1764561;80;21494;-71
2022/11/24 09:04:59;;;;;;;13.15;6.65;;;;;;;;;;1774215;80;20995;-72
2022/11/24 09:07:26;;;;;;;13.08;6.92;;;;;;;;;;1762774;81;21030;-73
2022/11/24 09:09:52;;;;;;;11.75;5.65;;;;;;;;;;1779276;80;21003;-70
2022/11/24 09:12:18;;;;;;;11.10;6.10;;;;;;;;;;1791551;80;21066;-71
2022/11/24 09:14:44;;;;;;;17.45;7.67;;;;;;;;;;1778959;80;21079;-71
2022/11/24 09:17:11;;;;;;;10.85;5.90;;;;;;;;;;1769164;80;21074;-72
2022/11/24 09:19:37;;;;;;;9.23;5.30;;;;;;;;;;1769984;80;21550;-72
2022/11/24 09:22:03;;;;;;;11.35;5.87;;;;;;;;;;1760999;81;21023;-71
2022/11/24 09:24:29;;;;;;;9.35;5.50;;;;;;;;;;1768894;80;21112;-72
2022/11/24 09:26:55;;;;;;;10.28;5.62;;;;;;;;;;1776221;80;21079;-72
2022/11/24 09:29:21;;;;;;;12.18;6.25;;;;;;;;;;1774605;80;22008;-72
2022/11/24 09:31:48;;;;;;;10.95;5.70;;;;;;;;;;1773151;80;21463;-73
2022/11/24 09:34:14;;;;;;;11.22;5.85;;;;;;;;;;1773951;80;21046;-73
2022/11/24 09:36:41;;;;;;;11.50;6.40;;;;;;;;;;1778857;80;20956;-74
2022/11/24 09:39:07;;;;;;;12.63;5.85;;;;;;;;;;1778693;80;20974;-75
2022/11/24 09:41:35;;;;;;;9.28;5.87;;;;;;;;;;1779652;80;21516;-75
2022/11/24 09:44:20;;;;;;;15.63;6.55;;;;;;;;;;1778821;79;21064;-75
2022/11/24 09:47:00;;;;;;;12.23;6.03;;;;;;;;;;1777158;80;21562;-72
2022/11/24 09:49:28;;;;;;;13.15;6.15;;;;;;;;;;1751024;80;21060;-73
2022/11/24 09:51:54;;;;;;;14.20;6.55;;;;;;;;;;1780597;78;21029;-73
2022/11/24 09:54:24;;;;;;;10.80;5.85;;;;;;;;;;1778337;78;21063;-73
2022/11/24 09:56:50;;;;;;;12.13;5.50;;;;;;;;;;1779792;78;21110;-72
2022/11/24 09:59:20;;;;;;;10.53;6.17;;;;;;;;;;1782165;78;22011;-74
2022/11/24 10:01:46;;;;;;;13.00;6.10;;;;;;;;;;1787421;78;21101;-74
2022/11/24 10:04:14;;;;;;;10.28;5.58;;;;;;;;;;1783203;78;21309;-72
2022/11/24 10:06:59;;;;;;;10.10;5.92;;;;;;;;;;1786520;78;21015;-72
2022/11/24 10:09:30;;;;;;;10.32;5.40;;;;;;;;;;1789823;78;21001;-73
2022/11/24 10:12:04;;;;;;;10.55;5.22;;;;;;;;;;1789552;78;21051;-73
2022/11/24 10:14:32;;;;;;;10.60;5.80;;;;;;;;;;1790460;78;21106;-73
2022/11/24 10:17:00;;;;;;;9.08;5.30;;;;;;;;;;1769210;79;21076;-74
2022/11/24 10:19:32;;;;;;;9.73;5.37;;;;;;;;;;1771697;80;21031;-74
2022/11/24 10:22:02;;;;;;;8.45;5.17;;;;;;;;;;1776126;78;21553;-73
2022/11/24 10:24:48;;;;;;;9.23;5.30;;;;;;;;;;1777477;80;22003;-75
2022/11/24 10:27:17;;;;;;;8.58;5.28;;;;;;;;;;1787209;80;21546;-71
2022/11/24 10:29:43;;;;;;;9.25;5.45;;;;;;;;;;1780231;80;20971;-71
2022/11/24 10:32:14;;;;;;;8.58;5.40;;;;;;;;;;1774652;80;20988;-71
2022/11/24 10:34:41;;;;;;;11.73;6.45;;;;;;;;;;1772460;78;21015;-71
2022/11/24 10:37:27;;;;;;;11.48;5.47;;;;;;;;;;1775797;80;21061;-71
2022/11/24 10:39:55;;;;;;;9.78;5.72;;;;;;;;;;1775576;78;21047;-70
2022/11/24 10:42:28;;;;;;;10.25;6.30;;;;;;;;;;1787671;80;21019;-70
2022/11/24 10:45:00;;;;;;;12.58;6.17;;;;;;;;;;1776832;80;21066;-70
2022/11/24 10:47:26;;;;;;;7.00;4.62;;;;;;;;;;1784142;78;21080;-70
2022/11/24 10:49:54;;;;;;;8.43;5.62;;;;;;;;;;1780747;80;21035;-72
2022/11/24 10:52:20;;;;;;;9.25;5.72;;;;;;;;;;1785232;80;21054;-71
2022/11/24 10:54:59;;;;;;;8.73;5.53;;;;;;;;;;1780076;80;21047;-72
2022/11/24 10:57:28;;;;;;;9.03;5.60;;;;;;;;;;1776568;80;21094;-70
2022/11/24 10:59:55;;;;;;;11.08;6.50;;;;;;;;;;1779329;80;21510;-72
2022/11/24 11:02:29;;;;;;;10.15;5.67;;;;;;;;;;1763911;80;21031;-72
2022/11/24 11:04:55;;;;;;;10.15;5.90;;;;;;;;;;1785437;79;20998;-72
2022/11/24 11:07:23;;;;;;;9.15;5.67;;;;;;;;;;1743993;80;20964;-73
2022/11/24 11:09:50;;;;;;;11.95;6.30;;;;;;;;;;1794039;79;21444;-73
2022/11/24 11:12:20;;;;;;;12.70;7.12;;;;;;;;;;1785260;79;21215;-72
2022/11/24 11:14:47;;;;;;;11.83;6.53;;;;;;;;;;1781636;79;22316;-73
2022/11/24 11:17:27;;;;;;;14.13;7.37;;;;;;;;;;1769691;79;21079;-73
2022/11/24 11:19:55;;;;;;;12.55;7.00;;;;;;;;;;1771656;80;21076;-74
2022/11/24 11:22:26;;;;;;;11.78;6.87;;;;;;;;;;1759846;78;21103;-74
2022/11/24 11:25:06;;;;;;;11.78;6.25;;;;;;;;;;1783839;78;21042;-73
2022/11/24 11:27:34;;;;;;;11.63;7.00;;;;;;;;;;1781938;78;21035;-73
2022/11/24 11:30:18;;;;;;;13.83;6.92;;;;;;;;;;1780524;78;21106;-73
2022/11/24 11:32:55;;;;;;;11.65;7.03;;;;;;;;;;1779492;78;21050;-73
2022/11/24 11:35:23;;;;;;;12.88;6.75;;;;;;;;;;1764382;80;21051;-72
2022/11/24 11:37:52;;;;;;;10.68;6.72;;;;;;;;;;1772236;79;21043;-72
2022/11/24 11:40:20;;;;;;;14.93;8.15;;;;;;;;;;1772374;79;20971;-72
2022/11/24 11:42:47;;;;;;;13.60;7.55;;;;;;;;;;1768513;79;21068;-73
2022/11/24 11:45:18;;;;;;;13.78;7.90;;;;;;;;;;1781213;79;21538;-73
2022/11/24 11:47:46;;;;;;;18.00;13.88;;;;;;;;;;1772416;79;21021;-74
2022/11/24 11:50:13;;;;;;;13.70;7.87;;;;;;;;;;1719630;81;21071;-74
2022/11/24 11:52:44;;;;;;;15.10;7.83;;;;;;;;;;1753735;80;21044;-74
2022/11/24 11:55:26;;;;;;;14.87;8.43;;;;;;;;;;1794923;78;21044;-74
2022/11/24 11:57:58;;;;;;;12.88;7.37;;;;;;;;;;1748082;80;21694;-71
2022/11/24 12:00:26;;;;;;;14.18;7.90;;;;;;;;;;1756857;81;20997;-72
2022/11/24 12:02:54;;;;;;;15.75;8.28;;;;;;;;;;1751056;81;21073;-73
2022/11/24 12:05:31;;;;;;;11.18;6.70;;;;;;;;;;1756296;81;21028;-74
2022/11/24 12:08:02;;;;;;;12.73;7.30;;;;;;;;;;1767226;81;21036;-73
2022/11/24 12:10:34;;;;;;;15.08;7.72;;;;;;;;;;1769689;81;21021;-74
2022/11/24 12:13:12;;;;;;;14.90;7.95;;;;;;;;;;1781269;79;21032;-74
2022/11/24 12:15:40;;;;;;;13.20;7.22;;;;;;;;;;1778386;80;21056;-72
2022/11/24 12:18:08;;;;;;;11.25;7.08;;;;;;;;;;1791646;80;21022;-72
2022/11/24 12:20:52;;;;;;;14.73;7.28;;;;;;;;;;1776974;80;21040;-71
2022/11/24 12:23:37;;;;;;;12.15;7.08;;;;;;;;;;1780518;78;21021;-71
2022/11/24 12:26:07;;;;;;;14.35;7.60;;;;;;;;;;1779781;78;21028;-75
2022/11/24 12:28:47;;;;;;;15.08;7.53;;;;;;;;;;1777190;80;21057;-72
2022/11/24 12:31:15;;;;;;;16.65;7.47;;;;;;;;;;1756494;80;21085;-73
2022/11/24 12:33:46;;;;;;;11.28;6.78;;;;;;;;;;1757265;80;21020;-73
2022/11/24 12:36:14;;;;;;;14.70;8.00;;;;;;;;;;1786160;79;21158;-73
2022/11/24 12:38:59;;;;;;;9.60;6.53;;;;;;;;;;1795024;79;21035;-73
2022/11/24 12:41:45;;;;;;;11.10;6.22;;;;;;;;;;1791977;79;21023;-73
2022/11/24 12:44:16;;;;;;;15.50;7.30;;;;;;;;;;1732544;81;21025;-73
2022/11/24 12:47:00;;;;;;;12.98;8.23;;;;;;;;;;1776831;80;21527;-73
2022/11/24 12:49:30;;;;;;;12.03;6.90;;;;;;;;;;1778666;80;21350;-74
2022/11/24 12:52:04;;;;;;;10.85;6.58;;;;;;;;;;1792549;78;20996;-72
2022/11/24 12:54:33;;;;;;;10.78;6.72;;;;;;;;;;1758730;80;21046;-72
2022/11/24 12:57:13;;;;;;;13.68;6.33;;;;;;;;;;1779597;78;21081;-72
2022/11/24 12:59:44;;;;;;;12.68;6.25;;;;;;;;;;1773763;81;21083;-73
2022/11/24 13:02:31;;;;;;;11.33;6.70;;;;;;;;;;1774566;80;21009;-75
2022/11/24 13:05:00;;;;;;;10.08;5.78;;;;;;;;;;1778261;80;21068;-73
2022/11/24 13:07:29;;;;;;;9.63;5.80;;;;;;;;;;1783761;79;21067;-72
2022/11/24 13:10:03;;;;;;;11.15;6.80;;;;;;;;;;1790657;80;21071;-72
2022/11/24 13:12:29;;;;;;;11.38;6.15;;;;;;;;;;1769441;80;21020;-71
2022/11/24 13:14:55;;;;;;;10.80;6.72;;;;;;;;;;1776008;79;21079;-72
2022/11/24 13:17:32;;;;;;;13.22;6.22;;;;;;;;;;1760343;79;21087;-73
2022/11/24 13:20:15;;;;;;;12.60;6.80;;;;;;;;;;1771337;80;20963;-73
2022/11/24 13:22:51;;;;;;;12.95;7.62;;;;;;;;;;1786104;80;21053;-73
2022/11/24 13:25:22;;;;;;;11.08;7.05;;;;;;;;;;1773868;79;21138;-72
2022/11/24 13:27:51;;;;;;;13.43;7.20;;;;;;;;;;1758770;80;21053;-72
2022/11/24 13:30:34;;;;;;;14.68;8.10;;;;;;;;;;1781631;79;21068;-72
2022/11/24 13:33:11;;;;;;;18.35;9.33;;;;;;;;;;1779247;79;21043;-72
2022/11/24 13:35:38;;;;;;;18.60;10.00;;;;;;;;;;1740970;81;21013;-72
2022/11/24 13:38:23;;;;;;;17.17;10.28;;;;;;;;;;1777462;80;21055;-72
2022/11/24 13:40:49;;;;;;;24.02;11.97;;;;;;;;;;1771600;80;21059;-71
2022/11/24 13:43:17;;;;;;;25.52;11.78;;;;;;;;;;1783957;80;21506;-71
2022/11/24 13:45:48;;;;;;;21.85;10.88;;;;;;;;;;1782317;78;21016;-74
2022/11/24 13:48:21;;;;;;;18.82;9.88;;;;;;;;;;1792512;80;21075;-74
2022/11/24 13:50:52;;;;;;;14.83;8.68;;;;;;;;;;1782411;80;21075;-73
2022/11/24 13:53:27;;;;;;;12.43;7.62;;;;;;;;;;1781810;80;20997;-73
2022/11/24 13:55:58;;;;;;;14.87;8.00;;;;;;;;;;1773386;80;21063;-72
2022/11/24 13:58:32;;;;;;;15.72;8.58;;;;;;;;;;1777995;78;21491;-73
2022/11/24 14:01:06;;;;;;;16.30;8.50;;;;;;;;;;1768438;80;21019;-72
2022/11/24 14:03:35;;;;;;;15.25;8.73;;;;;;;;;;1785861;80;21091;-71
2022/11/24 14:06:01;;;;;;;15.70;8.15;;;;;;;;;;1715980;81;21513;-73
2022/11/24 14:08:32;;;;;;;19.48;10.20;;;;;;;;;;1766760;80;21105;-72
2022/11/24 14:10:59;;;;;;;16.52;9.20;;;;;;;;;;1769273;80;21027;-71
2022/11/24 14:13:29;;;;;;;17.55;9.43;;;;;;;;;;1762055;80;21051;-72
2022/11/24 14:15:59;;;;;;;16.97;9.30;;;;;;;;;;1763573;81;21031;-73
2022/11/24 14:18:28;;;;;;;15.00;8.55;;;;;;;;;;1777737;80;21052;-73
2022/11/24 14:20:55;;;;;;;14.65;8.58;;;;;;;;;;1771490;80;21055;-73
2022/11/24 14:23:21;;;;;;;16.93;8.90;;;;;;;;;;1764332;80;21566;-74
2022/11/24 14:25:51;;;;;;;14.43;8.88;;;;;;;;;;1773425;80;21082;-72
2022/11/24 14:28:21;;;;;;;16.25;8.78;;;;;;;;;;1774905;80;21084;-71
2022/11/24 15:28:29;;;;;;;26.17;15.40;;;;;;;;;;1787513;78;28678;-66
2022/11/24 15:30:57;;;;;;;27.37;14.50;;;;;;;;;;1790695;79;21586;-66
2022/11/24 15:33:24;;;;;;;24.98;12.90;;;;;;;;;;1787075;78;21072;-66
2022/11/24 15:35:51;;;;;;;29.27;14.63;;;;;;;;;;1792992;78;21075;-65
2022/11/24 15:38:18;;;;;;;34.58;17.40;;;;;;;;;;1793606;78;21011;-65
2022/11/24 15:40:46;;;;;;;33.50;17.27;;;;;;;;;;1785581;78;21060;-65
2022/11/24 15:43:23;;;;;;;36.75;20.27;;;;;;;;;;1795677;78;20977;-66
2022/11/24 15:45:50;;;;;;;28.57;15.00;;;;;;;;;;1789795;79;21072;-65
2022/11/24 15:48:16;;;;;;;36.83;17.37;;;;;;;;;;1791860;78;21492;-66
2022/11/24 15:50:42;;;;;;;28.20;14.53;;;;;;;;;;1793024;78;21261;-65
2022/11/24 15:53:16;;;;;;;28.30;15.15;;;;;;;;;;1788751;79;20996;-65
2022/11/24 15:55:42;;;;;;;29.67;14.05;;;;;;;;;;1794098;79;21543;-65
2022/11/24 15:58:10;;;;;;;31.02;16.85;;;;;;;;;;1794238;79;21036;-65
2022/11/24 16:00:36;;;;;;;33.53;16.52;;;;;;;;;;1793627;78;21004;-65
2022/11/24 16:03:02;;;;;;;34.13;18.05;;;;;;;;;;1796414;78;22593;-65
2022/11/24 16:05:28;;;;;;;31.00;16.15;;;;;;;;;;1789549;78;21103;-65
2022/11/24 16:07:55;;;;;;;26.87;13.95;;;;;;;;;;1785751;79;21523;-65
2022/11/24 16:10:23;;;;;;;32.13;15.23;;;;;;;;;;1793759;78;21032;-64
2022/11/24 16:12:50;;;;;;;33.23;16.15;;;;;;;;;;1798667;79;21016;-66
2022/11/24 16:15:16;;;;;;;32.25;14.80;;;;;;;;;;1795562;79;20976;-66
2022/11/24 16:17:44;;;;;;;34.13;15.60;;;;;;;;;;1791540;78;21024;-66
2022/11/24 16:20:10;;;;;;;28.15;14.43;;;;;;;;;;1757657;80;21112;-66
2022/11/24 16:22:36;;;;;;;29.87;14.33;;;;;;;;;;1763418;79;21083;-66
2022/11/24 16:25:04;;;;;;;34.38;16.95;;;;;;;;;;1760698;80;21096;-66
2022/11/24 16:27:30;;;;;;;39.60;17.27;;;;;;;;;;1762644;79;21329;-65
2022/11/24 16:29:56;;;;;;;30.50;14.93;;;;;;;;;;1756470;79;21094;-65
2022/11/24 16:32:24;;;;;;;32.50;16.55;;;;;;;;;;1756356;79;21048;-66
2022/11/24 16:34:50;;;;;;;35.33;16.27;;;;;;;;;;1757198;79;21063;-65
2022/11/24 16:37:16;;;;;;;29.42;14.58;;;;;;;;;;1756478;80;21103;-64
2022/11/24 16:39:42;;;;;;;29.20;14.93;;;;;;;;;;1760881;79;21088;-65
2022/11/24 16:42:09;;;;;;;30.70;15.40;;;;;;;;;;1758263;80;21116;-65
2022/11/24 16:44:35;;;;;;;32.15;15.45;;;;;;;;;;1759705;80;21590;-66
2022/11/24 16:47:01;;;;;;;31.70;16.40;;;;;;;;;;1758276;80;21013;-65
2022/11/24 16:49:27;;;;;;;40.92;18.85;;;;;;;;;;1758149;80;21003;-65
2022/11/24 16:51:53;;;;;;;36.83;17.50;;;;;;;;;;1761158;80;21060;-65
2022/11/24 16:54:20;;;;;;;30.92;16.82;;;;;;;;;;1757071;79;22429;-65
2022/11/24 16:56:46;;;;;;;40.17;19.70;;;;;;;;;;1762809;79;21035;-64
2022/11/24 16:59:14;;;;;;;35.75;18.60;;;;;;;;;;1758815;80;21095;-64
2022/11/24 17:01:42;;;;;;;33.20;18.27;;;;;;;;;;1764006;80;21162;-65
2022/11/24 17:04:08;;;;;;;38.95;20.00;;;;;;;;;;1758807;80;21092;-65
2022/11/24 17:06:34;;;;;;;41.45;18.98;;;;;;;;;;1759139;80;21056;-65
2022/11/24 17:09:00;;;;;;;39.83;18.75;;;;;;;;;;1757371;80;21010;-65
2022/11/24 17:11:27;;;;;;;35.95;17.80;;;;;;;;;;1761081;80;21075;-65
2022/11/24 17:13:55;;;;;;;31.12;16.77;;;;;;;;;;1760635;80;21052;-65
2022/11/24 17:16:22;;;;;;;37.08;17.48;;;;;;;;;;1758256;80;21043;-64
2022/11/24 17:18:48;;;;;;;35.50;16.70;;;;;;;;;;1757493;79;21127;-65
2022/11/24 17:21:15;;;;;;;34.18;17.67;;;;;;;;;;1754476;80;21052;-65
2022/11/24 17:23:42;;;;;;;31.23;15.35;;;;;;;;;;1757837;79;21063;-65
2022/11/24 17:26:13;;;;;;;39.40;18.42;;;;;;;;;;1752805;80;21000;-65
2022/11/24 17:28:39;;;;;;;33.20;16.27;;;;;;;;;;1753863;79;21001;-65
2022/11/24 17:31:09;;;;;;;33.42;16.15;;;;;;;;;;1760049;80;21538;-65
2022/11/24 17:33:35;;;;;;;38.38;18.27;;;;;;;;;;1754398;79;21063;-65
2022/11/24 17:36:02;;;;;;;31.23;17.02;;;;;;;;;;1760791;79;21000;-65
2022/11/24 17:38:30;;;;;;;32.00;16.95;;;;;;;;;;1757479;79;21834;-65
2022/11/24 17:40:56;;;;;;;33.53;16.32;;;;;;;;;;1756682;81;21046;-65
2022/11/24 17:43:23;;;;;;;31.70;15.13;;;;;;;;;;1760851;81;21028;-65
2022/11/24 17:45:52;;;;;;;35.40;15.58;;;;;;;;;;1752962;81;21008;-65
2022/11/24 17:48:19;;;;;;;31.73;14.93;;;;;;;;;;1760560;80;21508;-66
2022/11/24 17:50:45;;;;;;;33.65;15.40;;;;;;;;;;1751949;81;21016;-64
2022/11/24 17:53:15;;;;;;;31.37;14.80;;;;;;;;;;1740069;81;21052;-64
2022/11/24 17:55:39;;;;;;;33.50;19.77;;;;;;;;;;1758104;80;21120;-64
2022/11/24 17:58:05;;;;;;;32.38;16.02;;;;;;;;;;1779182;80;21036;-64
2022/11/24 18:00:39;;;;;;;30.27;15.93;;;;;;;;;;1761986;80;22034;-64
2022/11/24 18:03:04;;;;;;;37.95;18.95;;;;;;;;;;1759131;80;21056;-64
2022/11/24 18:05:32;;;;;;;42.20;21.55;;;;;;;;;;1755464;80;21098;-64
2022/11/24 18:07:58;;;;;;;36.83;19.23;;;;;;;;;;1759229;80;21008;-65
2022/11/24 18:10:24;;;;;;;31.23;18.00;;;;;;;;;;1750242;79;21032;-65
2022/11/24 18:12:51;;;;;;;26.45;13.68;;;;;;;;;;1755644;80;21052;-65
2022/11/24 18:15:17;;;;;;;23.85;13.22;;;;;;;;;;1764367;80;20998;-65
2022/11/24 18:17:43;;;;;;;30.70;15.32;;;;;;;;;;1757017;80;21103;-65
2022/11/24 18:20:10;;;;;;;35.30;19.30;;;;;;;;;;1754545;80;21040;-66
2022/11/24 18:22:38;;;;;;;33.88;17.30;;;;;;;;;;1752516;80;21040;-65
2022/11/24 18:25:05;;;;;;;39.00;17.57;;;;;;;;;;1759698;80;21012;-65
2022/11/24 18:27:35;;;;;;;43.98;22.42;;;;;;;;;;1759625;80;21083;-65
2022/11/24 18:35:30;;;;;;;62.65;28.73;;;;;;;;;;1759703;80;21037;-65
2022/11/24 18:37:57;;;;;;;59.00;28.07;;;;;;;;;;1761789;80;21075;-66
2022/11/24 18:40:23;;;;;;;51.95;23.85;;;;;;;;;;1761271;80;21520;-65
2022/11/24 18:42:50;;;;;;;52.70;25.05;;;;;;;;;;1762701;80;21012;-66
2022/11/24 18:45:17;;;;;;;60.12;27.20;;;;;;;;;;1751048;80;21022;-65
2022/11/24 18:47:43;;;;;;;65.65;29.18;;;;;;;;;;1761720;80;21048;-65
2022/11/24 18:50:09;;;;;;;86.20;34.53;;;;;;;;;;1767506;80;21638;-65
2022/11/24 18:52:35;;;;;;;89.97;36.68;;;;;;;;;;1765736;80;21098;-65
2022/11/24 18:55:03;;;;;;;79.10;35.03;;;;;;;;;;1760370;80;21044;-65
2022/11/24 18:57:33;;;;;;;78.30;31.48;;;;;;;;;;1768658;80;21020;-65
2022/11/24 19:00:00;;;;;;;74.47;31.10;;;;;;;;;;1761302;80;21208;-65
2022/11/24 19:02:26;;;;;;;68.12;30.15;;;;;;;;;;1767713;80;21061;-64
2022/11/24 19:04:52;;;;;;;72.65;29.65;;;;;;;;;;1767761;80;21055;-66
2022/11/24 19:07:19;;;;;;;76.17;31.45;;;;;;;;;;1762867;80;22075;-67
2022/11/24 19:09:45;;;;;;;71.62;29.82;;;;;;;;;;1758992;80;21033;-65
2022/11/24 19:12:11;;;;;;;66.77;27.90;;;;;;;;;;1765208;80;21041;-66
2022/11/24 19:14:38;;;;;;;52.48;23.70;;;;;;;;;;1754183;80;21045;-66
2022/11/24 19:17:05;;;;;;;54.33;23.62;;;;;;;;;;1758762;80;21674;-66
2022/11/24 19:19:32;;;;;;;46.00;20.75;;;;;;;;;;1760323;81;21079;-66
2022/11/24 19:21:59;;;;;;;44.18;18.75;;;;;;;;;;1754883;80;21112;-66
2022/11/24 19:24:25;;;;;;;40.12;18.27;;;;;;;;;;1759030;80;21100;-66
2022/11/24 19:26:53;;;;;;;35.60;16.17;;;;;;;;;;1756788;80;21555;-66
2022/11/24 19:29:19;;;;;;;38.58;17.05;;;;;;;;;;1758429;80;21046;-66
